Oakbrook, Washington
Current Conditions -  °F | °C
As of 7:48 PM on Saturday 24 Jan 2015 (Local Time) from KTCM Reporting Station
Overcast Overcast  
Wind Chill: 55°   Ceiling: 900
Heat Index: 55°   Visibility: 10mi
Dew Point: 55°   Wind: 3mph
Humidity: 100%   Direction: 220°SW
Pressure: 30.23"   Gusts: NA
Location:  47.1809°N, 122.548°W
Report Text: KTCM 250348Z AUTO 22003KT 10SM OVC009 13/13 A3023 RMK AO2 CIG 007V009
Loading
Personal Weather Stations






























Interactive Weather Map New forecast layout! Learn more

10-Day Weather Forecast

Advertisements
Track Severe Weather on mobile